Observations for Trim Patrick St
| Time | AQI | Temp °C | Hum % | Pres Pa | CO μg/m³ | H₂S μg/m³ | NO μg/m³ | NO₂ μg/m³ | O₃ μg/m³ | SO₂ μg/m³ | PM1 μg/m³ | PM2.5 μg/m³ | PM10 μg/m³ |
|---|---|---|---|---|---|---|---|---|---|---|---|---|---|
| Tuesday 4 August 2026 | |||||||||||||
| 01:53 | 2 | 16.5 | 85 | 38,460 | 0.13 | 1.6 | 1.11 | 33.64 | 34.87 | 0 | 8.86 | 13.82 | 15.2 |
| 01:52 | 2 | 16.4 | 86 | 38,460 | 0.12 | 2.26 | 1.12 | 31.51 | 29.4 | 0 | 9.71 | 13.8 | 15.18 |
| 01:51 | 2 | 16.4 | 86 | 38,460 | 0.13 | 1.94 | 0.91 | 24.9 | 19.41 | 0 | 8 | 13.12 | 14.44 |
| 01:50 | 2 | 16.4 | 86 | 38,460 | 0.13 | 2.49 | 1.07 | 34.93 | 42.37 | 0 | 7.14 | 9.68 | 10.65 |
| 01:49 | 2 | 16.5 | 85 | 38,460 | 0.13 | 2.78 | 0.95 | 29.1 | 29.04 | 0 | 9.71 | 13.82 | 15.2 |
| 01:45 | 2 | 16.4 | 85 | 38,460 | 0.11 | 2.44 | 1.12 | 30.34 | 25.99 | 0 | 7.14 | 10.39 | 11.43 |
| 01:44 | 2 | 16.5 | 85 | 38,460 | 0.11 | 2.73 | 1.07 | 34.16 | 35.49 | 0 | 8.86 | 13.16 | 14.48 |
| 01:43 | 2 | 16.5 | 85 | 38,460 | 0.12 | 3.46 | 1.22 | 33.27 | 43.24 | 0 | 8 | 13.85 | 15.23 |
| 01:40 | 2 | 16.5 | 85 | 38,460 | 0.1 | 0.43 | 1.41 | 25.01 | 17.59 | 0 | 8 | 11.82 | 13.01 |
| 01:39 | 2 | 16.5 | 85 | 38,460 | 0.11 | 1.55 | 1.44 | 29.09 | 29.2 | 0 | 8 | 11.13 | 12.25 |
| 01:38 | 2 | 16.5 | 84 | 38,460 | 0.1 | 0.87 | 1.48 | 26.65 | 22.88 | 0 | 7.14 | 9.76 | 10.74 |
| 01:37 | 2 | 16.5 | 84 | 38,460 | 0.11 | 1.34 | 1.43 | 32.24 | 27.67 | 0 | 7.14 | 11.14 | 12.26 |
| 01:36 | 2 | 16.5 | 84 | 38,460 | 0.11 | 0 | 1.44 | 24.45 | 18.03 | 0 | 8 | 11.84 | 13.03 |
| 01:35 | 2 | 16.5 | 84 | 38,460 | 0.11 | 0 | 1.42 | 23.27 | 23.78 | 0 | 6.29 | 9.77 | 10.75 |
| 01:34 | 2 | 16.5 | 84 | 38,460 | 0.13 | 0.53 | 1.17 | 23 | 13.66 | 0 | 7.14 | 10.47 | 11.52 |
| 01:33 | 2 | 16.6 | 84 | 38,460 | 0.11 | 1.16 | 1.14 | 34.8 | 28.33 | 0 | 8.86 | 11.85 | 13.04 |
| 01:32 | 2 | 16.6 | 84 | 38,460 | 0.1 | 0 | 1.24 | 24.05 | 13.04 | 0 | 8 | 11.17 | 12.28 |
| 01:31 | 2 | 16.6 | 84 | 38,460 | 0.11 | 0 | 1.31 | 27.19 | 27.4 | 0 | 6.29 | 11.86 | 13.04 |
| 01:30 | 2 | 16.6 | 84 | 38,460 | 0.1 | 0 | 1.21 | 19.58 | 13.01 | 0 | 7.14 | 10.48 | 11.53 |
| 01:29 | 2 | 16.6 | 84 | 38,460 | 0.1 | 0 | 1.26 | 18.56 | 13.85 | 0 | 7.14 | 12.57 | 13.82 |